Lanzarote, Spain
Current Conditions -  °F | °C
As of 9:00 AM on Sunday 26 Oct 2014 (Local Time) from GCRR Reporting Station
Few Clouds Few Clouds  
Wind Chill: 72°   Ceiling: Unl
Heat Index: 72°   Visibility: 6mi
Dew Point: 61°   Wind: 2mph
Humidity: 69%   Direction: NA
Pressure: 30.03"   Gusts: NA
Location:  28.95°N, 13.6°W
Report Text: GCRR 260800Z VRB02KT 9999 FEW025 22/16 Q1017
Loading
Personal Weather Stations






























Interactive Weather Map
Tropical Storm Tracking
New forecast layout! Learn more

10-Day Weather Forecast

Advertisements
Track Severe Weather on mobile